»·PEaware :: N21AT KSNA-KWHP

N21AT :: KSNA-KWHP

FLIGHT INFORMATION

Flight Status: Arrived
Operator: Privately registered:
United States
More flights under this callsign
Pilot: Ryan L. (9775)
Aircraft: Diamond DA-40
(DA40)
More flights by this aircraft type
Origin: KSNA John Wayne-Orange Co
United States
Destination: KWHP Whiteman
United States
More flights between these airports :: More routes between these airports
Route:
File this flight plan on PilotEdge
Remarks:
Altitude:
(Current/Filed)
4,000ft
Speed:
(Current/Filed)
0kts
Departed: 29-Nov-20 01:02 PM
Arrived: 29-Nov-20 01:35 PM
Distance/Time
Traveled:
44nm/0:33
Distance/Time
To Go:
Arrived

Flight Plot

Page will automatically refresh every two minutes.


Map Options




Map Legend


Flown Route
Filed Route
Departure Airport
Arrival Airport
Navaid (VOR, NDB)
Fix

Horizontal Profiles

Position Reports

Time Latitude Longitude Heading Altitude Ground
Speed
29-Nov-20 12:52 33.667998 -117.870560 312 55ft 0kts
29-Nov-20 12:58 33.679996 -117.863681 294 45ft 0kts
29-Nov-20 13:00 33.679996 -117.863681 294 45ft 0kts
29-Nov-20 13:01 33.680129 -117.863970 296 45ft 8kts
29-Nov-20 13:02 33.667584 -117.871712 208 268ft 85kts
29-Nov-20 13:03 33.654352 -117.897398 243 890ft 102kts
29-Nov-20 13:03 33.642961 -117.923274 239 1507ft 107kts
29-Nov-20 13:04 33.628341 -117.954308 243 2272ft 108kts
29-Nov-20 13:05 33.614377 -117.990027 246 2329ft 123kts
29-Nov-20 13:07 33.627215 -118.015771 6 2912ft 106kts
29-Nov-20 13:07 33.654098 -118.011641 7 3038ft 122kts
29-Nov-20 13:08 33.687955 -118.008228 358 3046ft 122kts
29-Nov-20 13:09 33.721764 -118.007329 4 3051ft 121kts
29-Nov-20 13:10 33.755416 -118.002155 7 3054ft 121kts
29-Nov-20 13:11 33.788808 -117.996602 7 3043ft 121kts
29-Nov-20 13:12 33.822004 -117.989762 11 3041ft 121kts
29-Nov-20 13:13 33.854964 -117.981507 6 3038ft 120kts
29-Nov-20 13:15 33.893417 -117.985200 341 3030ft 120kts
29-Nov-20 13:15 33.920428 -117.992262 351 3013ft 120kts
29-Nov-20 13:16 33.948459 -117.999248 346 3019ft 120kts
29-Nov-20 13:17 33.979685 -118.009016 351 3012ft 120kts
29-Nov-20 13:18 34.008469 -118.013614 354 3004ft 120kts
29-Nov-20 13:19 34.039427 -118.018036 349 3034ft 120kts
29-Nov-20 13:20 34.072167 -118.026687 345 3047ft 120kts
29-Nov-20 13:21 34.103984 -118.038756 331 3056ft 120kts
29-Nov-20 13:22 34.131417 -118.062494 321 3060ft 121kts
29-Nov-20 13:23 34.153851 -118.092567 299 3064ft 123kts
29-Nov-20 13:24 34.170642 -118.128508 300 3075ft 122kts
29-Nov-20 13:25 34.188930 -118.163171 304 3073ft 122kts
29-Nov-20 13:26 34.207000 -118.197990 301 3084ft 122kts
29-Nov-20 13:27 34.224217 -118.233632 304 3048ft 122kts
29-Nov-20 13:28 34.245394 -118.265515 310 3044ft 122kts
29-Nov-20 13:29 34.266749 -118.297390 310 3045ft 122kts
29-Nov-20 13:30 34.286700 -118.330044 304 2935ft 115kts
29-Nov-20 13:31 34.302897 -118.364796 295 2725ft 119kts
29-Nov-20 13:32 34.297349 -118.400190 222 2326ft 117kts
29-Nov-20 13:33 34.276937 -118.422733 223 1634ft 87kts
29-Nov-20 13:34 34.259388 -118.413513 139 987ft 37kts
29-Nov-20 13:35 34.258395 -118.411838 318 982ft 9kts
29-Nov-20 13:36 34.260090 -118.412324 322 989ft 0kts
29-Nov-20 13:37 34.260090 -118.412324 322 989ft 0kts
29-Nov-20 13:38 34.260090 -118.412324 322 989ft 0kts
29-Nov-20 13:39 34.260090 -118.412324 322 989ft 0kts
29-Nov-20 13:40 34.260090 -118.412324 322 989ft 0kts
29-Nov-20 13:41 34.260090 -118.412324 322 989ft 0kts
29-Nov-20 13:42 34.260090 -118.412324 322 989ft 0kts
29-Nov-20 13:43 34.260090 -118.412324 322 989ft 0kts
29-Nov-20 13:44 34.260090 -118.412324 322 989ft 0kts
29-Nov-20 13:45 34.260090 -118.412324 322 989ft 0kts
29-Nov-20 13:46 34.260090 -118.412324 322 989ft 0kts
29-Nov-20 13:47 34.260090 -118.412324 322 989ft 0kts
29-Nov-20 13:48 34.260090 -118.412324 322 989ft 0kts

Navigation Log

Ident Type
Flight plan parsing failed, navigation log unavailable